sim
Sign-in with your pilot id or email,
or register
Callsign
Passwort

Schedule Details

Flight Number: OEO8589
Departure: Krakow John Paul II International Airport (EPKK) at 14:55
Arrival: Munich Airport (EDDM) at 16:25

Weather Information
Getting current METAR information for EPKK 010300Z VRB01KT 9999 FEW006 BKN009 12/11 Q1006
Getting current METAR information for EDDM 010250Z 00000KT 0800 0400NE R08L/0400U R08R/1400U FG NSC 04/03 Q1010 BECMG 0500 BKN001

Schedule Frequency

Route Map